Time;durP1;ratioP1;P1;durP2;ratioP2;P2;SDS_P1;SDS_P2;PMS_P1;PMS_P2;Temp;Humidity;BMP_temperature;BMP_pressure;BME280_temperature;BME280_humidity;BME280_pressure;Samples;Min_cycle;Max_cycle;Signal;HPM_P1;HPM_P2
2022/08/25 00:01:25;;;;;;;34.97;25.42;;;;;;;;;;5073617;28;20048;-69
2022/08/25 00:03:51;;;;;;;37.70;26.02;;;;;;;;;;5073580;28;20048;-75
2022/08/25 00:06:18;;;;;;;38.47;24.77;;;;;;;;;;5073008;28;20474;-76
2022/08/25 00:08:44;;;;;;;35.90;24.65;;;;;;;;;;5072702;28;20028;-75
2022/08/25 00:11:18;;;;;;;34.50;24.00;;;;;;;;;;5073667;28;20090;-69
2022/08/25 00:13:46;;;;;;;35.50;24.17;;;;;;;;;;5073484;28;20485;-77
2022/08/25 00:16:13;;;;;;;33.60;23.20;;;;;;;;;;5073488;28;20043;-72
2022/08/25 00:18:39;;;;;;;35.70;24.38;;;;;;;;;;5073099;28;20437;-77
2022/08/25 00:21:06;;;;;;;34.10;23.52;;;;;;;;;;5074468;28;20108;-69
2022/08/25 00:23:33;;;;;;;33.10;23.95;;;;;;;;;;5063594;28;20362;-78
2022/08/25 00:25:59;;;;;;;35.88;23.02;;;;;;;;;;5073277;28;20037;-74
2022/08/25 00:28:25;;;;;;;33.67;22.70;;;;;;;;;;5074270;28;20040;-73
2022/08/25 00:30:51;;;;;;;37.22;24.05;;;;;;;;;;5071683;28;20099;-76
2022/08/25 00:33:18;;;;;;;31.88;21.88;;;;;;;;;;5073920;28;20032;-76
2022/08/25 00:35:44;;;;;;;35.47;24.20;;;;;;;;;;5071974;28;20043;-76
2022/08/25 00:38:11;;;;;;;37.75;23.85;;;;;;;;;;5068878;28;20079;-69
2022/08/25 00:40:40;;;;;;;31.80;22.95;;;;;;;;;;5072565;28;20021;-74
2022/08/25 00:43:06;;;;;;;42.63;24.35;;;;;;;;;;5073788;28;20021;-75
2022/08/25 00:45:33;;;;;;;44.45;29.83;;;;;;;;;;5073703;28;20020;-76
2022/08/25 00:47:59;;;;;;;40.92;28.92;;;;;;;;;;5072001;28;20383;-69
2022/08/25 00:50:26;;;;;;;37.58;24.48;;;;;;;;;;5071870;28;20178;-68
2022/08/25 00:52:54;;;;;;;30.17;22.10;;;;;;;;;;5073215;28;20052;-76
2022/08/25 00:55:23;;;;;;;29.52;21.40;;;;;;;;;;5070577;28;20087;-77
2022/08/25 00:58:02;;;;;;;33.30;22.92;;;;;;;;;;5072673;28;20154;-76
2022/08/25 01:00:31;;;;;;;33.40;22.10;;;;;;;;;;5072142;28;20044;-69
2022/08/25 01:02:57;;;;;;;31.77;21.95;;;;;;;;;;5072770;28;20188;-77
2022/08/25 01:05:23;;;;;;;32.33;22.33;;;;;;;;;;5072188;28;20021;-76
2022/08/25 01:07:50;;;;;;;39.13;23.10;;;;;;;;;;5072299;28;20024;-76
2022/08/25 01:10:17;;;;;;;32.80;23.05;;;;;;;;;;5067932;28;20565;-74
2022/08/25 01:12:43;;;;;;;34.53;24.63;;;;;;;;;;5073111;28;20501;-77
2022/08/25 01:15:11;;;;;;;36.88;24.35;;;;;;;;;;5072535;28;20095;-74
2022/08/25 01:17:46;;;;;;;36.60;23.60;;;;;;;;;;5065998;28;20390;-76
2022/08/25 01:20:13;;;;;;;31.35;23.23;;;;;;;;;;5072421;28;20033;-75
2022/08/25 01:22:39;;;;;;;38.05;23.85;;;;;;;;;;5073486;28;20424;-76
2022/08/25 01:25:25;;;;;;;38.05;24.90;;;;;;;;;;5072116;28;20029;-77
2022/08/25 01:27:52;;;;;;;36.95;24.52;;;;;;;;;;5073637;28;20124;-77
2022/08/25 01:30:18;;;;;;;34.83;23.55;;;;;;;;;;5071171;28;20183;-69
2022/08/25 01:32:44;;;;;;;39.25;24.85;;;;;;;;;;5072076;28;20028;-77
2022/08/25 01:35:11;;;;;;;36.35;25.38;;;;;;;;;;5076971;28;20020;-78
2022/08/25 01:37:38;;;;;;;38.35;25.33;;;;;;;;;;5074050;28;20270;-78
2022/08/25 01:40:05;;;;;;;37.50;24.35;;;;;;;;;;5072457;28;20021;-78
2022/08/25 01:42:47;;;;;;;38.03;25.42;;;;;;;;;;5071302;28;20381;-77
2022/08/25 01:45:13;;;;;;;37.33;25.38;;;;;;;;;;5074972;28;20381;-71
2022/08/25 01:47:40;;;;;;;40.15;25.83;;;;;;;;;;5078034;28;20177;-78
2022/08/25 01:50:06;;;;;;;40.83;25.35;;;;;;;;;;5076343;28;20104;-78
2022/08/25 01:52:34;;;;;;;40.47;26.33;;;;;;;;;;5073939;28;20512;-76
2022/08/25 01:55:00;;;;;;;37.92;24.63;;;;;;;;;;5075817;28;20096;-69
2022/08/25 01:57:28;;;;;;;38.90;25.15;;;;;;;;;;5075414;28;20016;-76
2022/08/25 01:59:54;;;;;;;39.05;24.40;;;;;;;;;;5077312;28;20020;-76
2022/08/25 02:02:23;;;;;;;35.47;24.23;;;;;;;;;;5075539;28;20170;-76
2022/08/25 02:04:50;;;;;;;34.20;24.27;;;;;;;;;;5079063;28;20103;-78
2022/08/25 02:07:18;;;;;;;34.53;23.27;;;;;;;;;;5074978;28;20029;-72
2022/08/25 02:09:44;;;;;;;33.88;22.33;;;;;;;;;;5076011;28;20032;-78
2022/08/25 02:12:11;;;;;;;35.90;22.83;;;;;;;;;;5076039;28;20470;-77
2022/08/25 02:14:37;;;;;;;35.67;23.33;;;;;;;;;;5073153;28;20024;-73
2022/08/25 02:17:03;;;;;;;35.40;22.88;;;;;;;;;;5074504;28;20024;-69
2022/08/25 02:19:30;;;;;;;37.90;23.73;;;;;;;;;;5076575;28;20475;-78
2022/08/25 02:21:57;;;;;;;35.58;22.88;;;;;;;;;;5075913;28;20039;-72
2022/08/25 02:24:23;;;;;;;33.47;23.15;;;;;;;;;;5071325;28;20030;-73
2022/08/25 02:26:49;;;;;;;35.95;23.20;;;;;;;;;;5073398;28;20082;-77
2022/08/25 02:29:15;;;;;;;32.35;22.48;;;;;;;;;;5075603;28;20017;-78
2022/08/25 02:31:42;;;;;;;33.38;23.50;;;;;;;;;;5075701;28;20043;-77
2022/08/25 02:34:09;;;;;;;35.78;22.75;;;;;;;;;;5075699;28;20082;-71
2022/08/25 02:36:36;;;;;;;35.85;22.23;;;;;;;;;;5074777;28;20037;-76
2022/08/25 02:39:03;;;;;;;34.80;22.67;;;;;;;;;;5076641;28;20046;-77
2022/08/25 02:41:29;;;;;;;37.58;23.35;;;;;;;;;;5074487;28;20025;-78
2022/08/25 02:43:56;;;;;;;37.75;22.80;;;;;;;;;;5075417;28;20017;-78
2022/08/25 02:46:23;;;;;;;38.42;23.95;;;;;;;;;;5071918;28;20039;-70
2022/08/25 02:48:51;;;;;;;34.90;23.33;;;;;;;;;;5075505;28;20025;-78
2022/08/25 02:51:18;;;;;;;39.97;24.38;;;;;;;;;;5077980;28;20031;-76
2022/08/25 02:53:47;;;;;;;44.58;25.85;;;;;;;;;;5072957;28;20024;-78
2022/08/25 02:56:14;;;;;;;36.22;23.65;;;;;;;;;;5074505;28;20555;-78
2022/08/25 02:58:41;;;;;;;38.67;24.65;;;;;;;;;;5074446;28;20474;-77
2022/08/25 03:01:10;;;;;;;37.88;24.50;;;;;;;;;;5074919;28;20521;-76
2022/08/25 03:03:37;;;;;;;38.47;23.83;;;;;;;;;;5074691;28;20630;-73
2022/08/25 03:06:03;;;;;;;38.00;23.23;;;;;;;;;;5074932;28;20028;-77
2022/08/25 03:08:29;;;;;;;37.88;23.48;;;;;;;;;;5075453;28;20028;-74
2022/08/25 03:10:55;;;;;;;39.58;24.33;;;;;;;;;;5075039;28;20039;-77
2022/08/25 03:13:22;;;;;;;42.33;24.88;;;;;;;;;;5071825;28;20032;-76
2022/08/25 03:15:48;;;;;;;44.05;29.20;;;;;;;;;;5065894;28;20287;-75
2022/08/25 03:18:14;;;;;;;45.47;28.50;;;;;;;;;;5073740;28;20020;-72
2022/08/25 03:20:40;;;;;;;47.67;26.15;;;;;;;;;;5073452;28;20052;-70
2022/08/25 03:23:09;;;;;;;42.83;24.38;;;;;;;;;;5074585;28;20107;-74
2022/08/25 03:28:20;;;;;;;39.30;23.85;;;;;;;;;;5074382;28;20393;-74
2022/08/25 03:30:47;;;;;;;42.38;23.88;;;;;;;;;;5074564;28;20039;-67
2022/08/25 03:33:13;;;;;;;42.80;23.67;;;;;;;;;;5073203;28;20526;-68
2022/08/25 03:35:39;;;;;;;36.03;23.42;;;;;;;;;;5074548;28;20028;-72
2022/08/25 03:38:06;;;;;;;38.88;23.30;;;;;;;;;;5073968;28;20032;-68
2022/08/25 03:40:32;;;;;;;38.92;22.35;;;;;;;;;;5074374;28;20478;-71
2022/08/25 03:42:58;;;;;;;36.65;22.27;;;;;;;;;;5071955;28;20926;-71
2022/08/25 03:45:24;;;;;;;34.47;21.92;;;;;;;;;;5073639;28;20363;-68
2022/08/25 03:47:51;;;;;;;37.30;22.27;;;;;;;;;;5074051;28;20051;-69
2022/08/25 03:50:18;;;;;;;34.42;22.63;;;;;;;;;;5064732;28;20479;-77
2022/08/25 03:52:45;;;;;;;33.85;21.67;;;;;;;;;;5071816;28;20032;-76
2022/08/25 03:55:13;;;;;;;37.53;22.08;;;;;;;;;;5071277;28;20413;-76
2022/08/25 03:57:39;;;;;;;31.83;21.90;;;;;;;;;;5075779;28;20473;-69
2022/08/25 04:00:07;;;;;;;37.22;22.85;;;;;;;;;;5086045;28;20043;-77
2022/08/25 04:02:33;;;;;;;34.30;22.00;;;;;;;;;;5076015;28;20051;-74
2022/08/25 04:04:59;;;;;;;34.92;21.30;;;;;;;;;;5070243;28;20040;-77
2022/08/25 04:07:26;;;;;;;31.67;21.67;;;;;;;;;;5072773;28;20047;-76
2022/08/25 04:09:53;;;;;;;33.30;21.63;;;;;;;;;;5073622;28;20443;-76
2022/08/25 04:12:19;;;;;;;32.00;21.55;;;;;;;;;;5080837;28;20081;-76
2022/08/25 04:14:45;;;;;;;30.70;20.02;;;;;;;;;;5075043;28;20021;-71
2022/08/25 04:17:11;;;;;;;30.33;20.67;;;;;;;;;;5073028;28;20029;-76
2022/08/25 04:19:38;;;;;;;32.30;20.98;;;;;;;;;;5073245;28;20021;-77
2022/08/25 04:22:04;;;;;;;35.67;21.17;;;;;;;;;;5068211;28;20108;-74
2022/08/25 04:24:30;;;;;;;31.85;21.33;;;;;;;;;;5072268;28;20021;-73
2022/08/25 04:26:56;;;;;;;33.28;20.52;;;;;;;;;;5070996;28;20036;-76
2022/08/25 04:29:23;;;;;;;31.52;19.02;;;;;;;;;;5073378;28;20100;-76
2022/08/25 04:31:50;;;;;;;28.13;18.63;;;;;;;;;;5073107;28;20043;-75
2022/08/25 04:34:16;;;;;;;27.40;19.35;;;;;;;;;;5073603;28;20055;-72
2022/08/25 04:36:43;;;;;;;27.02;18.60;;;;;;;;;;5075915;28;20041;-77
2022/08/25 04:39:09;;;;;;;28.08;18.58;;;;;;;;;;5072570;28;20040;-69
2022/08/25 04:41:35;;;;;;;27.25;18.58;;;;;;;;;;5071617;28;20036;-77
2022/08/25 04:44:02;;;;;;;24.10;17.00;;;;;;;;;;5072973;28;20496;-69
2022/08/25 04:46:30;;;;;;;22.15;16.67;;;;;;;;;;5073790;28;20028;-69
2022/08/25 04:48:57;;;;;;;31.27;17.70;;;;;;;;;;5072206;28;20041;-72
2022/08/25 04:51:24;;;;;;;26.90;18.17;;;;;;;;;;5069106;28;20074;-83
2022/08/25 04:53:57;;;;;;;25.85;17.55;;;;;;;;;;5067812;28;20448;-72
2022/08/25 04:56:43;;;;;;;24.97;17.07;;;;;;;;;;5069488;28;20101;-75
2022/08/25 04:59:15;;;;;;;28.67;22.10;;;;;;;;;;5064119;28;20025;-72
2022/08/25 05:01:42;;;;;;;37.20;24.60;;;;;;;;;;5067726;28;20148;-77
2022/08/25 05:04:09;;;;;;;24.77;18.75;;;;;;;;;;5074742;28;20111;-68
2022/08/25 05:06:37;;;;;;;24.80;17.35;;;;;;;;;;5075634;28;20409;-69
2022/08/25 05:09:04;;;;;;;20.05;15.45;;;;;;;;;;5074699;28;20036;-69
2022/08/25 05:11:30;;;;;;;24.85;15.25;;;;;;;;;;5068025;28;20020;-73
2022/08/25 05:14:01;;;;;;;20.50;14.63;;;;;;;;;;5082068;28;20024;-67
2022/08/25 05:16:28;;;;;;;17.33;14.20;;;;;;;;;;5076484;28;20465;-67
2022/08/25 05:18:57;;;;;;;19.88;14.45;;;;;;;;;;5072448;28;20021;-74
2022/08/25 05:21:25;;;;;;;18.50;13.25;;;;;;;;;;5062812;28;20021;-71
2022/08/25 05:23:56;;;;;;;18.85;12.85;;;;;;;;;;5079331;28;20107;-67
2022/08/25 05:26:22;;;;;;;20.10;13.23;;;;;;;;;;5077971;28;20112;-70
2022/08/25 05:28:49;;;;;;;20.70;12.02;;;;;;;;;;5061997;28;20036;-71
2022/08/25 05:31:16;;;;;;;15.68;11.65;;;;;;;;;;5069444;28;20032;-68
2022/08/25 05:33:43;;;;;;;16.20;11.38;;;;;;;;;;5078515;28;20029;-70
2022/08/25 05:36:10;;;;;;;14.73;11.18;;;;;;;;;;5072754;28;20489;-70
2022/08/25 05:38:39;;;;;;;14.43;10.95;;;;;;;;;;5058023;28;20024;-82
2022/08/25 05:41:09;;;;;;;19.52;10.98;;;;;;;;;;5072555;28;20086;-82
2022/08/25 05:43:35;;;;;;;14.00;10.80;;;;;;;;;;5072427;28;20028;-70
2022/08/25 05:46:01;;;;;;;16.52;10.60;;;;;;;;;;5072705;28;20116;-82
2022/08/25 05:48:27;;;;;;;16.08;10.60;;;;;;;;;;5072705;28;20017;-76
2022/08/25 05:50:55;;;;;;;15.30;10.43;;;;;;;;;;5069105;28;20037;-77
2022/08/25 05:53:22;;;;;;;14.55;9.93;;;;;;;;;;5072527;28;20025;-82
2022/08/25 05:55:48;;;;;;;15.73;9.88;;;;;;;;;;5072842;28;20043;-77
2022/08/25 05:58:14;;;;;;;19.35;10.32;;;;;;;;;;5062614;28;20028;-79
2022/08/25 06:00:40;;;;;;;11.60;9.45;;;;;;;;;;5074021;28;20036;-75
2022/08/25 06:03:07;;;;;;;13.93;9.13;;;;;;;;;;5072690;28;20033;-75
2022/08/25 06:05:33;;;;;;;12.45;9.27;;;;;;;;;;5070796;28;20115;-73
2022/08/25 06:07:59;;;;;;;11.32;9.45;;;;;;;;;;5072991;28;20035;-82
2022/08/25 06:10:25;;;;;;;10.45;7.90;;;;;;;;;;5072562;28;20038;-78
2022/08/25 06:12:51;;;;;;;11.95;8.15;;;;;;;;;;5072436;28;20438;-81
2022/08/25 06:15:18;;;;;;;11.82;8.30;;;;;;;;;;5071133;28;20382;-69
2022/08/25 06:17:45;;;;;;;14.82;8.60;;;;;;;;;;5070859;28;20020;-82
2022/08/25 06:20:29;;;;;;;10.43;8.05;;;;;;;;;;5072427;28;20028;-70
2022/08/25 06:22:56;;;;;;;9.27;8.07;;;;;;;;;;5071994;28;20037;-69
2022/08/25 06:25:23;;;;;;;10.45;8.63;;;;;;;;;;5072447;28;20040;-83
2022/08/25 06:27:49;;;;;;;12.43;9.25;;;;;;;;;;5072564;28;20389;-82
2022/08/25 06:30:17;;;;;;;14.02;8.88;;;;;;;;;;5073738;28;20029;-82
2022/08/25 06:32:44;;;;;;;11.50;8.60;;;;;;;;;;5076374;28;20031;-76
2022/08/25 06:35:12;;;;;;;10.93;8.48;;;;;;;;;;5071151;28;20569;-72
2022/08/25 06:37:40;;;;;;;11.30;8.50;;;;;;;;;;5075850;28;20479;-83
2022/08/25 06:40:07;;;;;;;13.73;9.20;;;;;;;;;;5076075;28;20052;-82
2022/08/25 06:42:33;;;;;;;14.30;9.27;;;;;;;;;;5076543;28;20013;-82
2022/08/25 06:45:00;;;;;;;10.32;9.27;;;;;;;;;;5075743;28;20154;-83
2022/08/25 06:47:26;;;;;;;12.77;9.43;;;;;;;;;;5075975;28;20016;-84
2022/08/25 06:49:52;;;;;;;10.73;9.60;;;;;;;;;;5075997;28;20387;-79
2022/08/25 06:52:18;;;;;;;11.98;10.18;;;;;;;;;;5068285;28;20013;-84
2022/08/25 06:54:44;;;;;;;13.52;10.05;;;;;;;;;;5075636;28;20359;-78
2022/08/25 06:57:10;;;;;;;14.65;10.93;;;;;;;;;;5073583;28;20557;-82
2022/08/25 06:59:37;;;;;;;13.57;11.30;;;;;;;;;;5064794;28;20525;-82
2022/08/25 07:02:04;;;;;;;16.52;11.68;;;;;;;;;;5076557;28;20128;-83
2022/08/25 07:04:30;;;;;;;14.00;11.18;;;;;;;;;;5076118;28;20025;-77
2022/08/25 07:06:57;;;;;;;13.95;10.93;;;;;;;;;;5075645;28;20024;-84
2022/08/25 07:09:23;;;;;;;14.02;11.27;;;;;;;;;;5075633;28;20550;-83
2022/08/25 07:11:49;;;;;;;15.90;11.57;;;;;;;;;;5076139;28;20020;-79
2022/08/25 07:14:15;;;;;;;12.38;11.15;;;;;;;;;;5075572;28;20466;-83
2022/08/25 07:16:42;;;;;;;13.93;11.02;;;;;;;;;;5075558;28;20085;-83
2022/08/25 07:19:11;;;;;;;16.30;13.13;;;;;;;;;;5078922;28;20063;-82
2022/08/25 07:21:38;;;;;;;22.17;17.52;;;;;;;;;;5077896;28;20108;-81
2022/08/25 07:24:06;;;;;;;16.52;14.55;;;;;;;;;;5075781;28;20412;-82
2022/08/25 07:26:35;;;;;;;22.80;19.73;;;;;;;;;;5075264;28;20029;-81
2022/08/25 07:29:03;;;;;;;20.92;17.45;;;;;;;;;;5072695;28;20033;-73
2022/08/25 07:31:29;;;;;;;20.30;16.77;;;;;;;;;;5068849;28;20032;-82
2022/08/25 07:36:40;;;;;;;19.40;16.83;;;;;;;;;;5062091;28;20133;-79
2022/08/25 07:39:06;;;;;;;17.92;14.63;;;;;;;;;;5069019;28;20491;-80
2022/08/25 07:41:35;;;;;;;20.00;14.13;;;;;;;;;;5072733;28;20036;-81
2022/08/25 07:44:01;;;;;;;16.58;14.13;;;;;;;;;;5060204;28;20027;-82
2022/08/25 07:46:27;;;;;;;17.00;15.20;;;;;;;;;;5066731;28;20024;-82
2022/08/25 07:48:53;;;;;;;18.08;14.23;;;;;;;;;;5074320;28;20082;-80
2022/08/25 07:51:19;;;;;;;18.40;15.18;;;;;;;;;;5074708;28;20031;-81
2022/08/25 07:53:45;;;;;;;21.05;14.68;;;;;;;;;;5074631;28;20032;-82
2022/08/25 07:56:13;;;;;;;17.20;13.68;;;;;;;;;;5074340;28;20090;-81
2022/08/25 07:58:39;;;;;;;18.27;13.80;;;;;;;;;;5070428;28;20028;-86
2022/08/25 08:01:06;;;;;;;19.52;13.70;;;;;;;;;;5060473;28;20090;-78
2022/08/25 08:03:33;;;;;;;15.25;12.65;;;;;;;;;;5060807;28;20084;-81
2022/08/25 08:05:59;;;;;;;20.10;14.27;;;;;;;;;;5065232;28;20036;-74
2022/08/25 08:08:26;;;;;;;19.23;14.10;;;;;;;;;;5072112;28;20069;-69
2022/08/25 08:10:52;;;;;;;16.25;14.15;;;;;;;;;;5073687;28;20021;-72
2022/08/25 08:13:18;;;;;;;21.52;14.20;;;;;;;;;;5075217;28;20103;-77
2022/08/25 08:15:45;;;;;;;22.33;14.75;;;;;;;;;;5070740;28;20475;-73
2022/08/25 08:18:11;;;;;;;18.15;14.57;;;;;;;;;;5074887;28;20020;-78
2022/08/25 08:20:37;;;;;;;17.10;14.35;;;;;;;;;;5086785;28;20032;-71
2022/08/25 08:23:04;;;;;;;19.42;14.07;;;;;;;;;;5061913;28;20020;-72
2022/08/25 08:25:30;;;;;;;20.77;15.05;;;;;;;;;;5077111;28;20401;-76
2022/08/25 08:27:56;;;;;;;18.52;15.48;;;;;;;;;;5083083;28;20398;-75
2022/08/25 08:30:23;;;;;;;18.73;14.25;;;;;;;;;;5074765;28;20112;-79
2022/08/25 08:32:49;;;;;;;16.60;13.68;;;;;;;;;;5061264;28;20037;-75
2022/08/25 08:35:17;;;;;;;17.40;15.15;;;;;;;;;;5068286;28;20069;-77
2022/08/25 08:37:44;;;;;;;18.63;15.38;;;;;;;;;;5074802;28;20492;-78
2022/08/25 08:40:12;;;;;;;20.40;15.60;;;;;;;;;;5066723;28;20028;-78
2022/08/25 08:42:47;;;;;;;16.25;13.82;;;;;;;;;;5079252;28;20021;-79
2022/08/25 08:45:32;;;;;;;20.77;15.00;;;;;;;;;;5071080;28;20151;-76
2022/08/25 08:48:09;;;;;;;16.73;14.85;;;;;;;;;;5075002;28;20020;-73
2022/08/25 08:50:35;;;;;;;17.40;14.50;;;;;;;;;;5074801;28;20085;-75
2022/08/25 08:53:01;;;;;;;18.95;14.60;;;;;;;;;;5061978;28;20124;-76
2022/08/25 08:55:43;;;;;;;18.63;14.52;;;;;;;;;;5070369;28;20060;-75
2022/08/25 08:58:12;;;;;;;16.58;14.13;;;;;;;;;;5062038;28;20016;-80
2022/08/25 09:00:41;;;;;;;18.98;14.80;;;;;;;;;;5066714;28;20035;-74
2022/08/25 09:03:09;;;;;;;18.60;14.25;;;;;;;;;;5064328;28;20497;-78
2022/08/25 09:05:41;;;;;;;17.75;14.40;;;;;;;;;;5078450;28;20104;-75
2022/08/25 09:08:11;;;;;;;19.45;14.32;;;;;;;;;;5074032;28;20487;-77
2022/08/25 09:10:49;;;;;;;19.05;14.05;;;;;;;;;;5068511;28;20020;-77
2022/08/25 09:13:24;;;;;;;18.38;13.63;;;;;;;;;;5058212;28;20029;-76
2022/08/25 09:18:49;;;;;;;16.85;14.20;;;;;;;;;;5074317;28;20031;-74
2022/08/25 09:21:30;;;;;;;20.02;14.52;;;;;;;;;;5072453;28;20035;-74
2022/08/25 09:24:19;;;;;;;16.55;13.40;;;;;;;;;;5066998;28;20433;-80
2022/08/25 09:26:57;;;;;;;16.73;12.57;;;;;;;;;;5006420;28;20463;-79
2022/08/25 09:29:25;;;;;;;16.77;13.50;;;;;;;;;;5010796;28;20030;-84
2022/08/25 09:31:51;;;;;;;14.20;12.40;;;;;;;;;;4998056;28;20076;-83
2022/08/25 09:34:19;;;;;;;17.05;12.20;;;;;;;;;;5017652;28;20037;-79
2022/08/25 09:36:47;;;;;;;13.30;11.73;;;;;;;;;;5011028;28;20045;-79
2022/08/25 09:39:13;;;;;;;15.07;12.35;;;;;;;;;;5006751;28;20018;-76
2022/08/25 09:41:40;;;;;;;15.93;12.57;;;;;;;;;;5003686;28;20041;-72
2022/08/25 09:44:15;;;;;;;15.63;11.68;;;;;;;;;;5003713;28;20541;-87
2022/08/25 09:46:53;;;;;;;16.60;12.55;;;;;;;;;;5012977;28;20169;-83
2022/08/25 09:49:20;;;;;;;13.32;11.85;;;;;;;;;;5007903;28;20088;-78
2022/08/25 09:51:46;;;;;;;13.77;10.68;;;;;;;;;;5009647;28;20495;-77
2022/08/25 09:54:12;;;;;;;16.95;12.02;;;;;;;;;;5004775;28;20029;-77
2022/08/25 09:56:58;;;;;;;14.02;10.43;;;;;;;;;;5004253;28;20129;-77
2022/08/25 09:59:33;;;;;;;16.10;11.00;;;;;;;;;;4999073;28;20550;-76
2022/08/25 10:02:00;;;;;;;17.15;11.95;;;;;;;;;;5010581;28;20222;-76
2022/08/25 10:04:37;;;;;;;17.50;10.52;;;;;;;;;;5060499;28;20059;-78
2022/08/25 10:07:07;;;;;;;14.75;9.85;;;;;;;;;;5071850;28;20028;-76
2022/08/25 10:09:43;;;;;;;12.35;10.30;;;;;;;;;;5082249;28;20125;-76
2022/08/25 10:12:20;;;;;;;11.10;9.57;;;;;;;;;;5071422;28;20028;-73
2022/08/25 10:14:47;;;;;;;14.38;10.57;;;;;;;;;;5069807;28;20033;-74
2022/08/25 10:17:14;;;;;;;12.63;9.52;;;;;;;;;;5062270;28;20033;-76
2022/08/25 10:19:41;;;;;;;13.23;10.02;;;;;;;;;;5064510;28;20028;-73
2022/08/25 10:22:10;;;;;;;10.48;9.40;;;;;;;;;;5080693;28;20017;-70
2022/08/25 10:24:37;;;;;;;12.73;9.98;;;;;;;;;;5083018;28;20028;-72
2022/08/25 10:27:05;;;;;;;11.73;9.60;;;;;;;;;;5076413;28;20047;-72
2022/08/25 10:29:52;;;;;;;11.77;8.95;;;;;;;;;;5078799;28;20024;-73
2022/08/25 10:32:33;;;;;;;13.25;10.00;;;;;;;;;;5084586;28;20039;-73
2022/08/25 10:35:02;;;;;;;13.55;9.90;;;;;;;;;;5082655;28;20517;-75
2022/08/25 10:37:43;;;;;;;10.07;8.65;;;;;;;;;;5076125;28;20036;-72
2022/08/25 10:40:09;;;;;;;9.40;8.40;;;;;;;;;;5067208;28;20418;-75
2022/08/25 10:42:38;;;;;;;12.70;9.00;;;;;;;;;;5072771;28;20024;-73
2022/08/25 10:48:01;;;;;;;11.23;8.85;;;;;;;;;;5072003;28;20101;-71
2022/08/25 10:50:54;;;;;;;9.52;8.52;;;;;;;;;;5071286;28;20029;-72
2022/08/25 10:53:24;;;;;;;12.50;9.85;;;;;;;;;;5079207;28;20127;-71
2022/08/25 10:56:01;;;;;;;10.40;9.30;;;;;;;;;;5072739;28;20031;-73
2022/08/25 10:58:43;;;;;;;10.05;8.57;;;;;;;;;;5082969;28;20124;-72
2022/08/25 11:01:09;;;;;;;11.27;8.70;;;;;;;;;;5084220;28;20039;-73
2022/08/25 11:03:58;;;;;;;9.85;8.10;;;;;;;;;;5086036;28;20020;-74
2022/08/25 11:06:45;;;;;;;10.55;8.50;;;;;;;;;;5056768;28;20037;-74
2022/08/25 11:09:13;;;;;;;10.27;8.02;;;;;;;;;;5047394;28;20047;-73
2022/08/25 11:11:46;;;;;;;12.48;9.73;;;;;;;;;;5052713;28;20033;-72
2022/08/25 11:14:18;;;;;;;9.63;7.72;;;;;;;;;;5052970;28;20057;-75
2022/08/25 11:16:51;;;;;;;10.60;8.25;;;;;;;;;;5035934;28;20037;-77
2022/08/25 11:19:19;;;;;;;10.82;8.43;;;;;;;;;;5053811;28;20029;-83
2022/08/25 11:21:47;;;;;;;10.15;7.47;;;;;;;;;;5051861;28;20029;-75
2022/08/25 11:27:08;;;;;;;9.93;7.28;;;;;;;;;;5042627;28;20044;-75
2022/08/25 11:29:36;;;;;;;13.52;10.23;;;;;;;;;;5043954;28;20048;-73
2022/08/25 11:32:05;;;;;;;13.07;10.63;;;;;;;;;;5051800;28;20041;-83
2022/08/25 11:34:35;;;;;;;10.50;8.27;;;;;;;;;;5042859;28;20166;-80
2022/08/25 11:37:19;;;;;;;9.85;7.72;;;;;;;;;;5034405;28;20036;-75
2022/08/25 11:39:48;;;;;;;10.13;8.07;;;;;;;;;;5028773;28;20029;-76
2022/08/25 11:42:33;;;;;;;10.27;7.60;;;;;;;;;;5043543;28;20052;-76
2022/08/25 11:45:06;;;;;;;12.15;7.55;;;;;;;;;;5081428;28;20025;-76
2022/08/25 11:47:35;;;;;;;11.23;7.65;;;;;;;;;;5080499;28;20043;-76
2022/08/25 11:50:02;;;;;;;13.15;7.00;;;;;;;;;;5068447;28;20079;-73
2022/08/25 11:52:33;;;;;;;12.10;7.10;;;;;;;;;;5075360;28;20054;-74
2022/08/25 11:55:13;;;;;;;10.38;7.30;;;;;;;;;;5077807;28;20103;-73
2022/08/25 11:57:43;;;;;;;14.93;7.60;;;;;;;;;;5082850;28;20025;-73
2022/08/25 12:00:12;;;;;;;16.63;11.45;;;;;;;;;;5065178;28;20078;-76
2022/08/25 12:02:41;;;;;;;231.63;32.50;;;;;;;;;;5066687;28;20070;-75
2022/08/25 12:05:07;;;;;;;305.52;40.40;;;;;;;;;;5065957;28;20024;-73
2022/08/25 12:10:55;;;;;;;342.38;38.25;;;;;;;;;;5070931;28;20035;-74
2022/08/25 12:13:42;;;;;;;148.63;19.65;;;;;;;;;;5064399;28;20021;-73
2022/08/25 12:16:27;;;;;;;154.98;18.90;;;;;;;;;;5071049;28;20137;-76
2022/08/25 12:18:53;;;;;;;407.05;40.67;;;;;;;;;;5072069;28;20071;-77
2022/08/25 12:21:29;;;;;;;606.92;69.50;;;;;;;;;;5077256;28;21166;-76
2022/08/25 12:24:10;;;;;;;407.13;43.42;;;;;;;;;;5070609;28;20097;-69
2022/08/25 12:26:42;;;;;;;101.53;13.95;;;;;;;;;;5082407;28;20025;-74
2022/08/25 12:29:16;;;;;;;12.85;7.00;;;;;;;;;;5075165;28;20463;-74
2022/08/25 12:31:50;;;;;;;39.92;9.68;;;;;;;;;;5073210;28;20032;-73
2022/08/25 12:34:25;;;;;;;188.95;22.98;;;;;;;;;;5078661;28;20123;-75
2022/08/25 12:36:56;;;;;;;319.98;33.75;;;;;;;;;;5064601;28;20397;-74
2022/08/25 12:39:27;;;;;;;188.75;24.45;;;;;;;;;;5069575;28;20383;-73
2022/08/25 12:41:56;;;;;;;8.77;6.50;;;;;;;;;;5063811;28;20100;-76
2022/08/25 12:44:34;;;;;;;42.95;9.43;;;;;;;;;;5076744;28;20035;-72
2022/08/25 12:47:11;;;;;;;20.52;7.68;;;;;;;;;;5079816;28;20024;-74
2022/08/25 12:49:38;;;;;;;40.47;10.18;;;;;;;;;;5078546;28;20023;-79
2022/08/25 12:52:04;;;;;;;34.55;10.18;;;;;;;;;;5067655;28;20103;-75
2022/08/25 12:54:33;;;;;;;29.02;8.98;;;;;;;;;;5071924;28;20073;-74
2022/08/25 12:57:03;;;;;;;20.83;7.78;;;;;;;;;;5072084;28;20088;-72
2022/08/25 12:59:40;;;;;;;12.98;6.95;;;;;;;;;;5069556;28;20037;-72
2022/08/25 13:02:25;;;;;;;17.90;7.88;;;;;;;;;;5071517;28;20054;-73
2022/08/25 13:05:15;;;;;;;13.07;6.65;;;;;;;;;;5074820;28;20035;-73
2022/08/25 13:08:03;;;;;;;21.23;7.80;;;;;;;;;;5047783;28;20044;-73
2022/08/25 13:10:32;;;;;;;14.23;7.32;;;;;;;;;;5032878;28;20029;-75
2022/08/25 13:13:18;;;;;;;9.10;6.28;;;;;;;;;;5029706;28;20038;-72
2022/08/25 13:15:56;;;;;;;25.17;6.97;;;;;;;;;;5029847;28;20068;-74
2022/08/25 13:18:28;;;;;;;15.68;6.45;;;;;;;;;;5030064;28;20478;-74
2022/08/25 13:21:14;;;;;;;15.88;6.90;;;;;;;;;;5028792;28;20025;-74
2022/08/25 13:23:46;;;;;;;10.95;6.70;;;;;;;;;;5039721;28;20037;-73
2022/08/25 13:26:22;;;;;;;10.02;6.15;;;;;;;;;;5024970;28;20029;-73
2022/08/25 13:28:57;;;;;;;8.82;6.63;;;;;;;;;;5041847;28;20033;-73
2022/08/25 13:31:27;;;;;;;10.95;6.65;;;;;;;;;;5053386;28;20033;-73
2022/08/25 13:34:16;;;;;;;11.93;6.05;;;;;;;;;;5065323;28;20024;-73
2022/08/25 13:39:46;;;;;;;12.63;7.05;;;;;;;;;;5061851;28;20079;-73
2022/08/25 13:42:17;;;;;;;12.68;6.75;;;;;;;;;;5066601;28;20028;-74
2022/08/25 13:44:57;;;;;;;13.25;6.88;;;;;;;;;;5080347;28;20036;-73
2022/08/25 13:47:47;;;;;;;15.07;6.28;;;;;;;;;;5070615;28;20036;-74
2022/08/25 13:50:22;;;;;;;15.02;6.60;;;;;;;;;;5085538;28;20036;-73
2022/08/25 13:52:54;;;;;;;15.23;7.68;;;;;;;;;;5083974;28;20385;-72
2022/08/25 13:55:22;;;;;;;9.82;5.97;;;;;;;;;;5082387;28;20112;-72
2022/08/25 13:57:55;;;;;;;15.98;6.30;;;;;;;;;;5082424;28;20381;-75
2022/08/25 14:00:26;;;;;;;17.65;7.68;;;;;;;;;;5071081;28;20028;-73
2022/08/25 14:06:11;;;;;;;10.07;5.70;;;;;;;;;;5042349;28;20104;-74
2022/08/25 14:08:48;;;;;;;11.93;5.82;;;;;;;;;;5049668;28;20131;-74
2022/08/25 14:11:27;;;;;;;9.65;5.72;;;;;;;;;;5032766;28;20490;-73
2022/08/25 14:14:04;;;;;;;11.43;6.57;;;;;;;;;;5039653;28;20104;-73
2022/08/25 14:16:58;;;;;;;17.20;7.25;;;;;;;;;;5048149;28;20080;-72
2022/08/25 14:19:26;;;;;;;;;;;;;;;;;;5047582;28;20078;-73
2022/08/25 14:21:53;;;;;;;132.98;14.98;;;;;;;;;;5032607;28;19908;-74
2022/08/25 14:24:21;;;;;;;17.33;7.32;;;;;;;;;;5049672;28;20041;-73
2022/08/25 14:27:02;;;;;;;19.65;7.55;;;;;;;;;;5060272;28;20029;-72
2022/08/25 14:29:47;;;;;;;14.25;6.70;;;;;;;;;;5046695;28;20037;-74
2022/08/25 14:32:16;;;;;;;11.88;6.63;;;;;;;;;;5034848;28;20028;-73
2022/08/25 14:34:54;;;;;;;16.80;6.38;;;;;;;;;;5032591;28;20120;-74
2022/08/25 14:37:21;;;;;;;22.63;6.90;;;;;;;;;;5028120;28;20052;-73
2022/08/25 14:39:47;;;;;;;17.17;6.65;;;;;;;;;;5046605;28;20022;-78
2022/08/25 14:42:15;;;;;;;20.85;7.68;;;;;;;;;;5056979;28;20517;-78
2022/08/25 14:44:41;;;;;;;13.48;6.57;;;;;;;;;;5068934;28;20063;-77
2022/08/25 14:47:08;;;;;;;39.55;9.60;;;;;;;;;;5069776;28;20382;-74
2022/08/25 14:49:37;;;;;;;14.68;6.63;;;;;;;;;;5066415;28;20020;-75
2022/08/25 14:52:06;;;;;;;16.40;6.43;;;;;;;;;;5085155;28;20469;-74
2022/08/25 14:54:35;;;;;;;10.02;6.25;;;;;;;;;;5077480;28;20051;-75
2022/08/25 14:57:01;;;;;;;12.77;6.50;;;;;;;;;;5081997;28;20398;-72
2022/08/25 14:59:30;;;;;;;10.90;6.05;;;;;;;;;;5082726;28;20103;-73